sensor_id;sensor_type;location;lat;lon;timestamp;P1;durP1;ratioP1;P2;durP2;ratioP2
23222;SDS011;11780;13.904;100.620;2023-02-18T00:02:20;46.13;;;34.38;;
23222;SDS011;11780;13.904;100.620;2023-02-18T00:04:52;51.15;;;40.58;;
23222;SDS011;11780;13.904;100.620;2023-02-18T00:07:23;53.55;;;38.17;;
23222;SDS011;11780;13.904;100.620;2023-02-18T00:12:02;57.00;;;38.15;;
23222;SDS011;11780;13.904;100.620;2023-02-18T00:14:34;47.17;;;37.47;;
23222;SDS011;11780;13.904;100.620;2023-02-18T00:17:04;49.15;;;36.58;;
23222;SDS011;11780;13.904;100.620;2023-02-18T00:19:33;50.20;;;39.15;;
23222;SDS011;11780;13.904;100.620;2023-02-18T00:22:03;52.30;;;38.28;;
23222;SDS011;11780;13.904;100.620;2023-02-18T00:24:34;49.97;;;37.58;;
23222;SDS011;11780;13.904;100.620;2023-02-18T00:27:04;47.78;;;37.85;;
23222;SDS011;11780;13.904;100.620;2023-02-18T00:29:34;47.95;;;36.97;;
23222;SDS011;11780;13.904;100.620;2023-02-18T00:32:04;47.20;;;37.20;;
23222;SDS011;11780;13.904;100.620;2023-02-18T00:34:35;41.93;;;35.90;;
23222;SDS011;11780;13.904;100.620;2023-02-18T00:37:06;47.43;;;36.27;;
23222;SDS011;11780;13.904;100.620;2023-02-18T00:39:36;46.13;;;37.63;;
23222;SDS011;11780;13.904;100.620;2023-02-18T00:42:07;45.55;;;35.47;;
23222;SDS011;11780;13.904;100.620;2023-02-18T00:44:36;49.67;;;36.70;;
23222;SDS011;11780;13.904;100.620;2023-02-18T00:47:06;49.50;;;39.63;;
23222;SDS011;11780;13.904;100.620;2023-02-18T00:49:37;49.67;;;36.65;;
23222;SDS011;11780;13.904;100.620;2023-02-18T00:52:07;44.50;;;37.70;;
23222;SDS011;11780;13.904;100.620;2023-02-18T00:54:39;45.65;;;38.83;;
23222;SDS011;11780;13.904;100.620;2023-02-18T00:57:10;48.17;;;38.67;;
23222;SDS011;11780;13.904;100.620;2023-02-18T00:59:40;54.92;;;42.85;;
23222;SDS011;11780;13.904;100.620;2023-02-18T01:02:10;55.05;;;43.60;;
23222;SDS011;11780;13.904;100.620;2023-02-18T01:04:40;53.63;;;42.65;;
23222;SDS011;11780;13.904;100.620;2023-02-18T01:07:10;52.75;;;39.75;;
23222;SDS011;11780;13.904;100.620;2023-02-18T01:09:41;52.55;;;40.85;;
23222;SDS011;11780;13.904;100.620;2023-02-18T01:12:12;48.40;;;38.40;;
23222;SDS011;11780;13.904;100.620;2023-02-18T01:14:43;52.37;;;39.23;;
23222;SDS011;11780;13.904;100.620;2023-02-18T01:17:13;50.10;;;39.23;;
23222;SDS011;11780;13.904;100.620;2023-02-18T01:19:43;46.80;;;36.97;;
23222;SDS011;11780;13.904;100.620;2023-02-18T01:22:13;53.92;;;37.58;;
23222;SDS011;11780;13.904;100.620;2023-02-18T01:24:43;45.33;;;34.97;;
23222;SDS011;11780;13.904;100.620;2023-02-18T01:27:13;44.33;;;36.22;;
23222;SDS011;11780;13.904;100.620;2023-02-18T01:29:43;44.72;;;36.28;;
23222;SDS011;11780;13.904;100.620;2023-02-18T01:32:13;46.45;;;37.75;;
23222;SDS011;11780;13.904;100.620;2023-02-18T01:34:43;47.08;;;39.10;;
23222;SDS011;11780;13.904;100.620;2023-02-18T01:37:15;44.08;;;37.28;;
23222;SDS011;11780;13.904;100.620;2023-02-18T01:39:45;45.28;;;36.22;;
23222;SDS011;11780;13.904;100.620;2023-02-18T01:42:22;43.67;;;37.63;;
23222;SDS011;11780;13.904;100.620;2023-02-18T01:48:06;44.95;;;37.80;;
23222;SDS011;11780;13.904;100.620;2023-02-18T01:50:48;50.42;;;38.53;;
23222;SDS011;11780;13.904;100.620;2023-02-18T01:53:26;46.60;;;36.13;;
23222;SDS011;11780;13.904;100.620;2023-02-18T01:55:59;43.60;;;36.95;;
23222;SDS011;11780;13.904;100.620;2023-02-18T01:58:34;42.53;;;37.17;;
23222;SDS011;11780;13.904;100.620;2023-02-18T02:01:05;46.58;;;37.80;;
23222;SDS011;11780;13.904;100.620;2023-02-18T02:03:38;45.67;;;37.00;;
23222;SDS011;11780;13.904;100.620;2023-02-18T02:06:16;44.53;;;38.22;;
23222;SDS011;11780;13.904;100.620;2023-02-18T02:11:49;40.10;;;35.75;;
23222;SDS011;11780;13.904;100.620;2023-02-18T02:14:26;41.58;;;36.20;;
23222;SDS011;11780;13.904;100.620;2023-02-18T02:17:06;47.17;;;37.92;;
23222;SDS011;11780;13.904;100.620;2023-02-18T02:20:15;43.25;;;35.65;;
23222;SDS011;11780;13.904;100.620;2023-02-18T02:34:59;47.30;;;36.33;;
23222;SDS011;11780;13.904;100.620;2023-02-18T02:45:53;45.85;;;35.28;;
23222;SDS011;11780;13.904;100.620;2023-02-18T02:48:45;41.27;;;34.00;;
23222;SDS011;11780;13.904;100.620;2023-02-18T02:51:39;41.53;;;35.38;;
23222;SDS011;11780;13.904;100.620;2023-02-18T02:54:20;46.78;;;35.88;;
23222;SDS011;11780;13.904;100.620;2023-02-18T02:57:06;41.00;;;34.83;;
23222;SDS011;11780;13.904;100.620;2023-02-18T03:00:04;42.10;;;34.28;;
23222;SDS011;11780;13.904;100.620;2023-02-18T03:05:39;39.95;;;34.13;;
23222;SDS011;11780;13.904;100.620;2023-02-18T03:08:28;45.67;;;36.03;;
23222;SDS011;11780;13.904;100.620;2023-02-18T03:11:10;43.72;;;34.60;;
23222;SDS011;11780;13.904;100.620;2023-02-18T03:16:52;40.00;;;35.15;;
23222;SDS011;11780;13.904;100.620;2023-02-18T03:19:33;37.08;;;33.03;;
23222;SDS011;11780;13.904;100.620;2023-02-18T03:24:46;38.05;;;32.60;;
23222;SDS011;11780;13.904;100.620;2023-02-18T03:27:31;40.65;;;34.42;;
23222;SDS011;11780;13.904;100.620;2023-02-18T03:30:07;37.72;;;33.55;;
23222;SDS011;11780;13.904;100.620;2023-02-18T03:32:44;37.60;;;31.95;;
23222;SDS011;11780;13.904;100.620;2023-02-18T03:35:17;43.72;;;33.22;;
23222;SDS011;11780;13.904;100.620;2023-02-18T03:38:30;39.42;;;32.53;;
23222;SDS011;11780;13.904;100.620;2023-02-18T03:41:03;37.63;;;33.42;;
23222;SDS011;11780;13.904;100.620;2023-02-18T03:43:35;36.50;;;32.30;;
23222;SDS011;11780;13.904;100.620;2023-02-18T03:46:05;37.67;;;32.45;;
23222;SDS011;11780;13.904;100.620;2023-02-18T03:48:36;42.92;;;33.50;;
23222;SDS011;11780;13.904;100.620;2023-02-18T03:51:06;38.55;;;33.42;;
23222;SDS011;11780;13.904;100.620;2023-02-18T03:53:37;36.70;;;30.52;;
23222;SDS011;11780;13.904;100.620;2023-02-18T03:56:07;36.38;;;32.05;;
23222;SDS011;11780;13.904;100.620;2023-02-18T03:58:37;39.92;;;34.10;;
23222;SDS011;11780;13.904;100.620;2023-02-18T04:01:07;39.05;;;32.15;;
23222;SDS011;11780;13.904;100.620;2023-02-18T04:03:38;36.47;;;32.47;;
23222;SDS011;11780;13.904;100.620;2023-02-18T04:06:08;40.50;;;32.15;;
23222;SDS011;11780;13.904;100.620;2023-02-18T04:08:38;37.88;;;31.08;;
23222;SDS011;11780;13.904;100.620;2023-02-18T04:11:08;38.55;;;31.25;;
23222;SDS011;11780;13.904;100.620;2023-02-18T04:13:39;37.00;;;30.73;;
23222;SDS011;11780;13.904;100.620;2023-02-18T04:16:09;35.17;;;30.60;;
23222;SDS011;11780;13.904;100.620;2023-02-18T04:18:39;36.00;;;30.33;;
23222;SDS011;11780;13.904;100.620;2023-02-18T04:21:10;34.22;;;29.17;;
23222;SDS011;11780;13.904;100.620;2023-02-18T04:23:40;32.97;;;29.35;;
23222;SDS011;11780;13.904;100.620;2023-02-18T04:26:09;34.05;;;28.60;;
23222;SDS011;11780;13.904;100.620;2023-02-18T04:28:40;36.08;;;28.95;;
23222;SDS011;11780;13.904;100.620;2023-02-18T04:31:10;34.80;;;29.25;;
23222;SDS011;11780;13.904;100.620;2023-02-18T04:33:40;33.25;;;29.17;;
23222;SDS011;11780;13.904;100.620;2023-02-18T04:36:10;31.75;;;28.27;;
23222;SDS011;11780;13.904;100.620;2023-02-18T04:38:40;34.03;;;27.83;;
23222;SDS011;11780;13.904;100.620;2023-02-18T04:41:11;31.60;;;27.67;;
23222;SDS011;11780;13.904;100.620;2023-02-18T04:43:43;31.55;;;26.20;;
23222;SDS011;11780;13.904;100.620;2023-02-18T04:46:13;31.85;;;27.02;;
23222;SDS011;11780;13.904;100.620;2023-02-18T04:48:43;30.13;;;26.33;;
23222;SDS011;11780;13.904;100.620;2023-02-18T04:51:13;31.33;;;27.73;;
23222;SDS011;11780;13.904;100.620;2023-02-18T04:53:43;30.45;;;25.13;;
23222;SDS011;11780;13.904;100.620;2023-02-18T04:56:14;30.20;;;26.58;;
23222;SDS011;11780;13.904;100.620;2023-02-18T04:58:44;34.72;;;26.98;;
23222;SDS011;11780;13.904;100.620;2023-02-18T05:01:14;52.63;;;34.77;;
23222;SDS011;11780;13.904;100.620;2023-02-18T05:03:44;43.85;;;32.22;;
23222;SDS011;11780;13.904;100.620;2023-02-18T05:06:14;40.55;;;30.42;;
23222;SDS011;11780;13.904;100.620;2023-02-18T05:08:44;45.45;;;32.08;;
23222;SDS011;11780;13.904;100.620;2023-02-18T05:11:14;52.28;;;32.60;;
23222;SDS011;11780;13.904;100.620;2023-02-18T05:13:44;49.22;;;32.45;;
23222;SDS011;11780;13.904;100.620;2023-02-18T05:16:14;50.33;;;33.00;;
23222;SDS011;11780;13.904;100.620;2023-02-18T05:18:44;47.80;;;32.67;;
23222;SDS011;11780;13.904;100.620;2023-02-18T05:21:14;48.63;;;31.77;;
23222;SDS011;11780;13.904;100.620;2023-02-18T05:23:44;43.72;;;30.30;;
23222;SDS011;11780;13.904;100.620;2023-02-18T05:26:15;43.37;;;29.07;;
23222;SDS011;11780;13.904;100.620;2023-02-18T05:28:45;43.07;;;29.23;;
23222;SDS011;11780;13.904;100.620;2023-02-18T05:31:16;39.28;;;29.08;;
23222;SDS011;11780;13.904;100.620;2023-02-18T05:33:47;49.03;;;31.52;;
23222;SDS011;11780;13.904;100.620;2023-02-18T05:36:17;42.67;;;29.77;;
23222;SDS011;11780;13.904;100.620;2023-02-18T05:38:48;35.85;;;27.35;;
23222;SDS011;11780;13.904;100.620;2023-02-18T05:41:18;36.22;;;27.20;;
23222;SDS011;11780;13.904;100.620;2023-02-18T05:43:48;34.17;;;26.15;;
23222;SDS011;11780;13.904;100.620;2023-02-18T05:46:37;35.30;;;25.92;;
23222;SDS011;11780;13.904;100.620;2023-02-18T05:49:07;31.13;;;25.52;;
23222;SDS011;11780;13.904;100.620;2023-02-18T05:51:37;35.13;;;26.53;;
23222;SDS011;11780;13.904;100.620;2023-02-18T05:54:07;32.08;;;24.23;;
23222;SDS011;11780;13.904;100.620;2023-02-18T05:56:37;29.77;;;24.23;;
23222;SDS011;11780;13.904;100.620;2023-02-18T05:59:07;28.90;;;24.67;;
23222;SDS011;11780;13.904;100.620;2023-02-18T06:01:38;29.80;;;23.53;;
23222;SDS011;11780;13.904;100.620;2023-02-18T06:04:08;29.20;;;23.97;;
23222;SDS011;11780;13.904;100.620;2023-02-18T06:06:40;29.80;;;23.98;;
23222;SDS011;11780;13.904;100.620;2023-02-18T06:09:11;33.00;;;23.50;;
23222;SDS011;11780;13.904;100.620;2023-02-18T06:11:42;26.05;;;23.17;;
23222;SDS011;11780;13.904;100.620;2023-02-18T06:14:12;27.40;;;23.33;;
23222;SDS011;11780;13.904;100.620;2023-02-18T06:16:42;27.00;;;22.73;;
23222;SDS011;11780;13.904;100.620;2023-02-18T06:19:12;31.35;;;23.25;;
23222;SDS011;11780;13.904;100.620;2023-02-18T06:21:42;29.13;;;22.90;;
23222;SDS011;11780;13.904;100.620;2023-02-18T06:24:12;28.70;;;22.95;;
23222;SDS011;11780;13.904;100.620;2023-02-18T06:26:42;29.02;;;23.98;;
23222;SDS011;11780;13.904;100.620;2023-02-18T06:29:12;27.70;;;23.25;;
23222;SDS011;11780;13.904;100.620;2023-02-18T06:31:42;28.02;;;23.05;;
23222;SDS011;11780;13.904;100.620;2023-02-18T06:34:13;26.00;;;22.23;;
23222;SDS011;11780;13.904;100.620;2023-02-18T06:36:43;26.00;;;23.30;;
23222;SDS011;11780;13.904;100.620;2023-02-18T06:39:15;25.67;;;21.67;;
23222;SDS011;11780;13.904;100.620;2023-02-18T06:41:45;24.20;;;21.65;;
23222;SDS011;11780;13.904;100.620;2023-02-18T06:44:16;25.73;;;22.23;;
23222;SDS011;11780;13.904;100.620;2023-02-18T06:46:46;27.50;;;21.17;;
23222;SDS011;11780;13.904;100.620;2023-02-18T06:49:16;25.15;;;22.13;;
23222;SDS011;11780;13.904;100.620;2023-02-18T06:54:17;25.83;;;23.13;;
23222;SDS011;11780;13.904;100.620;2023-02-18T06:56:47;26.52;;;22.02;;
23222;SDS011;11780;13.904;100.620;2023-02-18T06:59:17;24.88;;;21.52;;
23222;SDS011;11780;13.904;100.620;2023-02-18T07:01:47;27.23;;;21.88;;
23222;SDS011;11780;13.904;100.620;2023-02-18T07:04:17;23.58;;;21.13;;
23222;SDS011;11780;13.904;100.620;2023-02-18T07:06:47;27.98;;;22.52;;
23222;SDS011;11780;13.904;100.620;2023-02-18T07:09:17;28.10;;;22.50;;
23222;SDS011;11780;13.904;100.620;2023-02-18T07:11:47;27.05;;;22.60;;
23222;SDS011;11780;13.904;100.620;2023-02-18T07:14:17;27.77;;;21.98;;
23222;SDS011;11780;13.904;100.620;2023-02-18T07:16:47;27.48;;;22.08;;
23222;SDS011;11780;13.904;100.620;2023-02-18T07:19:17;25.05;;;21.77;;
23222;SDS011;11780;13.904;100.620;2023-02-18T07:21:47;26.73;;;22.05;;
23222;SDS011;11780;13.904;100.620;2023-02-18T07:24:17;27.83;;;22.38;;
23222;SDS011;11780;13.904;100.620;2023-02-18T07:26:47;25.95;;;20.83;;
23222;SDS011;11780;13.904;100.620;2023-02-18T07:29:17;25.60;;;22.90;;
23222;SDS011;11780;13.904;100.620;2023-02-18T07:31:47;24.60;;;21.92;;
23222;SDS011;11780;13.904;100.620;2023-02-18T07:34:17;23.80;;;21.38;;
23222;SDS011;11780;13.904;100.620;2023-02-18T07:36:47;28.17;;;22.63;;
23222;SDS011;11780;13.904;100.620;2023-02-18T07:39:17;26.92;;;22.42;;
23222;SDS011;11780;13.904;100.620;2023-02-18T07:41:48;24.90;;;21.15;;
23222;SDS011;11780;13.904;100.620;2023-02-18T07:44:22;24.95;;;22.17;;
23222;SDS011;11780;13.904;100.620;2023-02-18T07:46:56;25.25;;;22.00;;
23222;SDS011;11780;13.904;100.620;2023-02-18T07:49:27;25.75;;;22.83;;
23222;SDS011;11780;13.904;100.620;2023-02-18T07:51:57;26.65;;;22.38;;
23222;SDS011;11780;13.904;100.620;2023-02-18T07:54:29;26.02;;;23.23;;
23222;SDS011;11780;13.904;100.620;2023-02-18T07:56:59;26.38;;;22.00;;
23222;SDS011;11780;13.904;100.620;2023-02-18T07:59:29;25.25;;;22.60;;
23222;SDS011;11780;13.904;100.620;2023-02-18T08:01:59;24.70;;;22.10;;
23222;SDS011;11780;13.904;100.620;2023-02-18T08:04:29;25.17;;;22.52;;
23222;SDS011;11780;13.904;100.620;2023-02-18T08:06:59;25.42;;;22.60;;
23222;SDS011;11780;13.904;100.620;2023-02-18T08:09:29;27.45;;;22.98;;
23222;SDS011;11780;13.904;100.620;2023-02-18T08:11:59;25.67;;;22.88;;
23222;SDS011;11780;13.904;100.620;2023-02-18T08:14:29;25.80;;;21.60;;
23222;SDS011;11780;13.904;100.620;2023-02-18T08:16:59;25.73;;;22.08;;
23222;SDS011;11780;13.904;100.620;2023-02-18T08:19:29;26.25;;;23.40;;
23222;SDS011;11780;13.904;100.620;2023-02-18T08:22:02;25.15;;;22.45;;
23222;SDS011;11780;13.904;100.620;2023-02-18T08:24:32;28.08;;;22.83;;
23222;SDS011;11780;13.904;100.620;2023-02-18T08:27:02;26.25;;;22.75;;
23222;SDS011;11780;13.904;100.620;2023-02-18T08:29:32;27.02;;;23.02;;
23222;SDS011;11780;13.904;100.620;2023-02-18T08:32:01;26.73;;;23.70;;
23222;SDS011;11780;13.904;100.620;2023-02-18T08:34:33;25.38;;;22.73;;
23222;SDS011;11780;13.904;100.620;2023-02-18T08:37:02;27.85;;;23.98;;
23222;SDS011;11780;13.904;100.620;2023-02-18T08:39:33;25.25;;;22.60;;
23222;SDS011;11780;13.904;100.620;2023-02-18T08:42:06;28.80;;;24.10;;
23222;SDS011;11780;13.904;100.620;2023-02-18T08:44:36;26.33;;;23.15;;
23222;SDS011;11780;13.904;100.620;2023-02-18T08:47:06;27.20;;;23.42;;
23222;SDS011;11780;13.904;100.620;2023-02-18T08:49:56;28.63;;;24.52;;
23222;SDS011;11780;13.904;100.620;2023-02-18T08:52:26;28.88;;;24.05;;
23222;SDS011;11780;13.904;100.620;2023-02-18T08:54:56;29.17;;;23.58;;
23222;SDS011;11780;13.904;100.620;2023-02-18T08:57:27;29.13;;;25.73;;
23222;SDS011;11780;13.904;100.620;2023-02-18T08:59:58;30.08;;;25.27;;
23222;SDS011;11780;13.904;100.620;2023-02-18T09:04:58;29.55;;;24.05;;
23222;SDS011;11780;13.904;100.620;2023-02-18T09:07:28;30.35;;;24.90;;
23222;SDS011;11780;13.904;100.620;2023-02-18T09:09:58;27.67;;;24.25;;
23222;SDS011;11780;13.904;100.620;2023-02-18T09:12:28;32.95;;;24.98;;
23222;SDS011;11780;13.904;100.620;2023-02-18T09:14:58;32.10;;;24.73;;
23222;SDS011;11780;13.904;100.620;2023-02-18T09:17:29;27.30;;;24.13;;
23222;SDS011;11780;13.904;100.620;2023-02-18T09:19:59;29.50;;;24.90;;
23222;SDS011;11780;13.904;100.620;2023-02-18T09:22:29;31.92;;;24.92;;
23222;SDS011;11780;13.904;100.620;2023-02-18T09:25:01;29.20;;;25.02;;
23222;SDS011;11780;13.904;100.620;2023-02-18T09:27:32;28.00;;;23.98;;
23222;SDS011;11780;13.904;100.620;2023-02-18T09:30:02;30.58;;;25.23;;
23222;SDS011;11780;13.904;100.620;2023-02-18T09:32:33;30.70;;;23.30;;
23222;SDS011;11780;13.904;100.620;2023-02-18T09:35:03;27.00;;;24.27;;
23222;SDS011;11780;13.904;100.620;2023-02-18T09:37:34;27.87;;;24.93;;
23222;SDS011;11780;13.904;100.620;2023-02-18T09:40:04;28.95;;;25.02;;
23222;SDS011;11780;13.904;100.620;2023-02-18T09:42:35;28.27;;;25.40;;
23222;SDS011;11780;13.904;100.620;2023-02-18T09:45:06;27.17;;;24.23;;
23222;SDS011;11780;13.904;100.620;2023-02-18T09:47:40;28.60;;;24.25;;
23222;SDS011;11780;13.904;100.620;2023-02-18T09:50:23;31.10;;;25.27;;
23222;SDS011;11780;13.904;100.620;2023-02-18T09:52:57;28.80;;;25.10;;
23222;SDS011;11780;13.904;100.620;2023-02-18T09:58:17;27.10;;;24.07;;
23222;SDS011;11780;13.904;100.620;2023-02-18T10:00:55;27.40;;;24.50;;
23222;SDS011;11780;13.904;100.620;2023-02-18T10:03:29;27.35;;;24.45;;
23222;SDS011;11780;13.904;100.620;2023-02-18T10:06:02;29.45;;;23.73;;
23222;SDS011;11780;13.904;100.620;2023-02-18T10:08:45;27.40;;;24.35;;
23222;SDS011;11780;13.904;100.620;2023-02-18T10:11:22;25.45;;;22.67;;
23222;SDS011;11780;13.904;100.620;2023-02-18T10:14:10;27.92;;;25.00;;
23222;SDS011;11780;13.904;100.620;2023-02-18T10:16:43;27.10;;;24.25;;
23222;SDS011;11780;13.904;100.620;2023-02-18T10:21:57;27.88;;;24.23;;
23222;SDS011;11780;13.904;100.620;2023-02-18T10:24:40;27.52;;;23.58;;
23222;SDS011;11780;13.904;100.620;2023-02-18T10:27:34;26.35;;;23.52;;
23222;SDS011;11780;13.904;100.620;2023-02-18T10:39:01;27.48;;;24.58;;
23222;SDS011;11780;13.904;100.620;2023-02-18T10:41:49;27.20;;;24.33;;
23222;SDS011;11780;13.904;100.620;2023-02-18T10:50:44;26.02;;;23.27;;
23222;SDS011;11780;13.904;100.620;2023-02-18T10:53:18;31.83;;;25.65;;
23222;SDS011;11780;13.904;100.620;2023-02-18T10:56:32;26.38;;;23.58;;
23222;SDS011;11780;13.904;100.620;2023-02-18T11:01:41;27.45;;;24.10;;
23222;SDS011;11780;13.904;100.620;2023-02-18T11:04:16;28.60;;;25.60;;
23222;SDS011;11780;13.904;100.620;2023-02-18T11:06:50;29.58;;;25.92;;
23222;SDS011;11780;13.904;100.620;2023-02-18T11:17:47;29.92;;;25.27;;
23222;SDS011;11780;13.904;100.620;2023-02-18T11:20:35;28.90;;;24.08;;
23222;SDS011;11780;13.904;100.620;2023-02-18T11:25:37;28.02;;;25.23;;
23222;SDS011;11780;13.904;100.620;2023-02-18T11:30:45;27.95;;;24.92;;
23222;SDS011;11780;13.904;100.620;2023-02-18T11:33:19;29.30;;;26.23;;
23222;SDS011;11780;13.904;100.620;2023-02-18T11:36:02;26.35;;;23.52;;
23222;SDS011;11780;13.904;100.620;2023-02-18T11:41:17;28.40;;;25.60;;
23222;SDS011;11780;13.904;100.620;2023-02-18T11:43:50;28.02;;;25.23;;
23222;SDS011;11780;13.904;100.620;2023-02-18T11:46:23;28.52;;;25.52;;
23222;SDS011;11780;13.904;100.620;2023-02-18T11:48:55;27.00;;;24.15;;
23222;SDS011;11780;13.904;100.620;2023-02-18T11:51:39;26.58;;;23.58;;
23222;SDS011;11780;13.904;100.620;2023-02-18T11:56:59;30.30;;;27.15;;
23222;SDS011;11780;13.904;100.620;2023-02-18T11:59:32;31.65;;;26.73;;
23222;SDS011;11780;13.904;100.620;2023-02-18T12:04:45;31.40;;;26.08;;
23222;SDS011;11780;13.904;100.620;2023-02-18T12:07:28;36.67;;;27.85;;
23222;SDS011;11780;13.904;100.620;2023-02-18T12:10:37;31.30;;;26.73;;
23222;SDS011;11780;13.904;100.620;2023-02-18T12:16:30;33.33;;;26.63;;
23222;SDS011;11780;13.904;100.620;2023-02-18T12:22:19;35.38;;;27.38;;
23222;SDS011;11780;13.904;100.620;2023-02-18T12:31:53;31.67;;;25.98;;
23222;SDS011;11780;13.904;100.620;2023-02-18T12:51:27;37.17;;;30.52;;
23222;SDS011;11780;13.904;100.620;2023-02-18T13:02:51;39.72;;;30.17;;
23222;SDS011;11780;13.904;100.620;2023-02-18T13:05:43;41.13;;;30.45;;
23222;SDS011;11780;13.904;100.620;2023-02-18T13:08:53;42.15;;;31.52;;
23222;SDS011;11780;13.904;100.620;2023-02-18T13:15:02;36.40;;;30.33;;
23222;SDS011;11780;13.904;100.620;2023-02-18T13:17:42;41.73;;;31.00;;
23222;SDS011;11780;13.904;100.620;2023-02-18T13:20:16;42.67;;;30.20;;
23222;SDS011;11780;13.904;100.620;2023-02-18T13:22:54;45.90;;;32.85;;
23222;SDS011;11780;13.904;100.620;2023-02-18T13:25:35;41.65;;;31.95;;
23222;SDS011;11780;13.904;100.620;2023-02-18T13:31:01;42.17;;;31.50;;
23222;SDS011;11780;13.904;100.620;2023-02-18T13:33:42;37.83;;;30.88;;
23222;SDS011;11780;13.904;100.620;2023-02-18T13:39:05;38.85;;;30.90;;
23222;SDS011;11780;13.904;100.620;2023-02-18T13:41:48;39.70;;;30.63;;
23222;SDS011;11780;13.904;100.620;2023-02-18T13:46:54;39.72;;;30.27;;
23222;SDS011;11780;13.904;100.620;2023-02-18T13:49:33;35.10;;;29.35;;
23222;SDS011;11780;13.904;100.620;2023-02-18T13:52:14;34.72;;;29.63;;
23222;SDS011;11780;13.904;100.620;2023-02-18T13:54:48;36.88;;;28.52;;
23222;SDS011;11780;13.904;100.620;2023-02-18T13:57:19;35.83;;;27.88;;
23222;SDS011;11780;13.904;100.620;2023-02-18T13:59:57;39.25;;;28.20;;
23222;SDS011;11780;13.904;100.620;2023-02-18T14:02:32;35.17;;;27.27;;
23222;SDS011;11780;13.904;100.620;2023-02-18T14:27:43;35.03;;;28.38;;
23222;SDS011;11780;13.904;100.620;2023-02-18T14:33:11;31.73;;;28.13;;
23222;SDS011;11780;13.904;100.620;2023-02-18T14:35:55;33.80;;;28.65;;
23222;SDS011;11780;13.904;100.620;2023-02-18T14:48:33;33.00;;;29.42;;
23222;SDS011;11780;13.904;100.620;2023-02-18T14:51:22;37.28;;;30.48;;
23222;SDS011;11780;13.904;100.620;2023-02-18T14:54:01;34.03;;;29.58;;
23222;SDS011;11780;13.904;100.620;2023-02-18T14:56:36;36.00;;;30.55;;
23222;SDS011;11780;13.904;100.620;2023-02-18T14:59:11;37.05;;;28.73;;
23222;SDS011;11780;13.904;100.620;2023-02-18T15:04:15;32.30;;;27.00;;
23222;SDS011;11780;13.904;100.620;2023-02-18T15:06:45;32.72;;;27.10;;
23222;SDS011;11780;13.904;100.620;2023-02-18T15:09:45;33.42;;;28.50;;
23222;SDS011;11780;13.904;100.620;2023-02-18T15:12:21;35.88;;;28.80;;
23222;SDS011;11780;13.904;100.620;2023-02-18T15:14:53;32.67;;;27.65;;
23222;SDS011;11780;13.904;100.620;2023-02-18T15:17:29;33.42;;;29.08;;
23222;SDS011;11780;13.904;100.620;2023-02-18T15:20:02;33.40;;;28.85;;
23222;SDS011;11780;13.904;100.620;2023-02-18T15:22:34;33.67;;;29.00;;
23222;SDS011;11780;13.904;100.620;2023-02-18T15:25:05;32.47;;;28.87;;
23222;SDS011;11780;13.904;100.620;2023-02-18T15:27:41;31.65;;;28.25;;
23222;SDS011;11780;13.904;100.620;2023-02-18T15:33:00;33.78;;;29.55;;
23222;SDS011;11780;13.904;100.620;2023-02-18T15:35:43;31.48;;;28.15;;
23222;SDS011;11780;13.904;100.620;2023-02-18T15:38:17;33.72;;;28.58;;
23222;SDS011;11780;13.904;100.620;2023-02-18T15:40:49;36.95;;;29.30;;
23222;SDS011;11780;13.904;100.620;2023-02-18T15:43:23;34.17;;;29.42;;
23222;SDS011;11780;13.904;100.620;2023-02-18T15:45:58;34.58;;;30.52;;
23222;SDS011;11780;13.904;100.620;2023-02-18T15:48:46;35.42;;;30.48;;
23222;SDS011;11780;13.904;100.620;2023-02-18T15:51:19;36.80;;;29.60;;
23222;SDS011;11780;13.904;100.620;2023-02-18T15:53:53;34.70;;;30.48;;
23222;SDS011;11780;13.904;100.620;2023-02-18T15:56:37;32.97;;;28.27;;
23222;SDS011;11780;13.904;100.620;2023-02-18T16:01:52;30.88;;;27.52;;
23222;SDS011;11780;13.904;100.620;2023-02-18T16:04:33;35.90;;;28.80;;
23222;SDS011;11780;13.904;100.620;2023-02-18T16:07:21;31.80;;;28.50;;
23222;SDS011;11780;13.904;100.620;2023-02-18T16:10:08;32.65;;;29.15;;
23222;SDS011;11780;13.904;100.620;2023-02-18T16:12:39;32.75;;;27.88;;
23222;SDS011;11780;13.904;100.620;2023-02-18T16:15:29;34.58;;;28.73;;
23222;SDS011;11780;13.904;100.620;2023-02-18T16:18:01;31.45;;;28.10;;
23222;SDS011;11780;13.904;100.620;2023-02-18T16:20:35;33.00;;;28.07;;
23222;SDS011;11780;13.904;100.620;2023-02-18T16:23:11;35.42;;;30.00;;
23222;SDS011;11780;13.904;100.620;2023-02-18T16:25:47;36.45;;;30.15;;
23222;SDS011;11780;13.904;100.620;2023-02-18T16:28:23;32.45;;;28.52;;
23222;SDS011;11780;13.904;100.620;2023-02-18T16:31:01;33.22;;;29.67;;
23222;SDS011;11780;13.904;100.620;2023-02-18T16:33:31;35.47;;;30.20;;
23222;SDS011;11780;13.904;100.620;2023-02-18T16:36:02;35.93;;;30.63;;
23222;SDS011;11780;13.904;100.620;2023-02-18T16:38:33;34.90;;;31.08;;
23222;SDS011;11780;13.904;100.620;2023-02-18T16:43:34;40.38;;;30.92;;
23222;SDS011;11780;13.904;100.620;2023-02-18T16:46:09;35.17;;;29.13;;
23222;SDS011;11780;13.904;100.620;2023-02-18T16:48:43;37.97;;;29.95;;
23222;SDS011;11780;13.904;100.620;2023-02-18T16:51:22;33.95;;;30.27;;
23222;SDS011;11780;13.904;100.620;2023-02-18T16:53:54;36.67;;;29.48;;
23222;SDS011;11780;13.904;100.620;2023-02-18T16:56:26;34.75;;;31.02;;
23222;SDS011;11780;13.904;100.620;2023-02-18T16:59:01;33.92;;;29.95;;
23222;SDS011;11780;13.904;100.620;2023-02-18T17:01:35;35.50;;;29.30;;
23222;SDS011;11780;13.904;100.620;2023-02-18T17:04:11;41.03;;;29.10;;
23222;SDS011;11780;13.904;100.620;2023-02-18T17:06:46;35.50;;;29.88;;
23222;SDS011;11780;13.904;100.620;2023-02-18T17:09:18;40.10;;;30.33;;
23222;SDS011;11780;13.904;100.620;2023-02-18T17:11:51;37.97;;;30.40;;
23222;SDS011;11780;13.904;100.620;2023-02-18T17:14:23;36.25;;;30.77;;
23222;SDS011;11780;13.904;100.620;2023-02-18T17:16:54;38.20;;;32.17;;
23222;SDS011;11780;13.904;100.620;2023-02-18T17:19:24;36.03;;;29.60;;
23222;SDS011;11780;13.904;100.620;2023-02-18T17:21:54;36.15;;;30.88;;
23222;SDS011;11780;13.904;100.620;2023-02-18T17:24:24;36.25;;;31.42;;
23222;SDS011;11780;13.904;100.620;2023-02-18T17:26:54;41.38;;;32.15;;
23222;SDS011;11780;13.904;100.620;2023-02-18T17:29:24;35.80;;;31.95;;
23222;SDS011;11780;13.904;100.620;2023-02-18T17:31:55;43.38;;;32.25;;
23222;SDS011;11780;13.904;100.620;2023-02-18T17:34:27;36.65;;;30.77;;
23222;SDS011;11780;13.904;100.620;2023-02-18T17:36:59;34.40;;;30.73;;
23222;SDS011;11780;13.904;100.620;2023-02-18T17:39:29;40.97;;;33.30;;